createdAt,value
2019-01-20T00:01:20.398Z,100761.00
2019-01-20T00:03:50.058Z,100766.00
2019-01-20T00:06:19.510Z,100758.00
2019-01-20T00:08:49.143Z,100764.00
2019-01-20T00:11:18.588Z,100757.00
2019-01-20T00:13:48.090Z,100755.00
2019-01-20T00:16:17.808Z,100759.00
2019-01-20T00:18:47.336Z,100750.00
2019-01-20T00:21:16.805Z,100750.00
2019-01-20T00:23:46.274Z,100750.00
2019-01-20T00:26:15.745Z,100748.00
2019-01-20T00:28:45.234Z,100756.00
2019-01-20T00:31:14.748Z,100762.00
2019-01-20T00:33:44.202Z,100756.00
2019-01-20T00:36:13.673Z,100752.00
2019-01-20T00:38:43.164Z,100752.00
2019-01-20T00:41:12.616Z,100747.00
2019-01-20T00:43:42.071Z,100739.00
2019-01-20T00:46:11.563Z,100746.00
2019-01-20T00:48:41.019Z,100746.00
2019-01-20T00:51:10.540Z,100749.00
2019-01-20T00:53:40.123Z,100752.00
2019-01-20T00:56:09.613Z,100744.00
2019-01-20T00:58:39.074Z,100750.00
2019-01-20T01:01:08.558Z,100748.00
2019-01-20T01:03:38.045Z,100745.00
2019-01-20T01:06:07.483Z,100746.00
2019-01-20T01:08:36.964Z,100743.00
2019-01-20T01:11:06.425Z,100748.00
2019-01-20T01:13:36.179Z,100743.00
2019-01-20T01:16:05.728Z,100740.00
2019-01-20T01:18:35.221Z,100744.00
2019-01-20T01:21:04.873Z,100744.00
2019-01-20T01:23:34.333Z,100746.00
2019-01-20T01:26:03.870Z,100745.00
2019-01-20T01:28:33.330Z,100737.00
2019-01-20T01:31:02.902Z,100743.00
2019-01-20T01:33:32.365Z,100735.00
2019-01-20T01:36:01.811Z,100735.00
2019-01-20T01:38:31.278Z,100733.00
2019-01-20T01:41:00.731Z,100734.00
2019-01-20T01:43:30.217Z,100724.00
2019-01-20T01:45:59.719Z,100708.00
2019-01-20T01:48:29.176Z,100710.00
2019-01-20T01:50:58.664Z,100716.00
2019-01-20T01:53:28.144Z,100711.00
2019-01-20T01:55:57.592Z,100713.00
2019-01-20T01:58:27.087Z,100701.00
2019-01-20T02:00:56.548Z,100703.00
2019-01-20T02:03:26.007Z,100706.00
2019-01-20T02:05:55.491Z,100714.00
2019-01-20T02:08:24.980Z,100696.00
2019-01-20T02:10:54.507Z,100698.00
2019-01-20T02:13:23.993Z,100701.00
2019-01-20T02:15:53.445Z,100699.00
2019-01-20T02:18:22.928Z,100696.00
2019-01-20T02:20:52.383Z,100688.00
2019-01-20T02:23:21.880Z,100688.00
2019-01-20T02:25:51.333Z,100686.00
2019-01-20T02:28:20.780Z,100697.00
2019-01-20T02:30:50.265Z,100692.00
2019-01-20T02:33:19.717Z,100697.00
2019-01-20T02:35:49.206Z,100687.00
2019-01-20T02:38:18.656Z,100690.00
2019-01-20T02:40:48.112Z,100686.00
2019-01-20T02:43:17.600Z,100686.00
2019-01-20T02:45:47.095Z,100701.00
2019-01-20T02:48:16.577Z,100700.00
2019-01-20T02:50:46.026Z,100689.00
2019-01-20T02:53:15.511Z,100690.00
2019-01-20T02:55:45.012Z,100695.00
2019-01-20T02:58:14.503Z,100686.00
2019-01-20T03:00:44.010Z,100685.00
2019-01-20T03:03:13.496Z,100682.00
2019-01-20T03:05:42.986Z,100688.00
2019-01-20T03:08:12.509Z,100682.00
2019-01-20T03:10:41.992Z,100688.00
2019-01-20T03:13:11.459Z,100689.00
2019-01-20T03:15:40.944Z,100686.00
2019-01-20T03:18:10.430Z,100685.00
2019-01-20T03:20:39.898Z,100680.00
2019-01-20T03:23:09.359Z,100686.00
2019-01-20T03:25:38.886Z,100684.00
2019-01-20T03:28:08.338Z,100674.00
2019-01-20T03:30:37.793Z,100677.00
2019-01-20T03:33:07.282Z,100683.00
2019-01-20T03:35:36.977Z,100677.00
2019-01-20T03:38:07.457Z,100675.00
2019-01-20T03:40:36.907Z,100667.00
2019-01-20T03:43:06.392Z,100669.00
2019-01-20T03:45:35.875Z,100676.00
2019-01-20T03:48:05.726Z,100680.00
2019-01-20T03:50:35.209Z,100673.00
2019-01-20T03:53:04.766Z,100671.00
2019-01-20T03:55:34.265Z,100681.00
2019-01-20T03:58:03.712Z,100675.00
2019-01-20T04:00:33.178Z,100666.00
2019-01-20T04:03:02.939Z,100683.00
2019-01-20T04:05:32.471Z,100685.00
2019-01-20T04:08:01.963Z,100677.00
2019-01-20T04:10:31.427Z,100662.00
2019-01-20T04:13:00.925Z,100654.00
2019-01-20T04:15:30.373Z,100662.00
2019-01-20T04:17:59.942Z,100660.00
2019-01-20T04:20:29.443Z,100655.00
2019-01-20T04:22:58.887Z,100667.00
2019-01-20T04:25:28.438Z,100655.00
2019-01-20T04:27:57.895Z,100653.00
2019-01-20T04:30:27.387Z,100651.00
2019-01-20T04:32:56.846Z,100651.00
2019-01-20T04:35:26.349Z,100651.00
2019-01-20T04:37:55.914Z,100657.00
2019-01-20T04:40:25.336Z,100655.00
2019-01-20T04:42:55.094Z,100653.00
2019-01-20T04:45:24.618Z,100655.00
2019-01-20T04:47:54.128Z,100653.00
2019-01-20T04:50:24.710Z,100644.00
2019-01-20T04:52:54.176Z,100648.00
2019-01-20T04:55:23.719Z,100632.00
2019-01-20T04:57:54.477Z,100646.00
2019-01-20T05:00:28.033Z,100650.00
2019-01-20T05:02:57.512Z,100650.00
2019-01-20T05:05:27.135Z,100650.00
2019-01-20T05:07:56.810Z,100647.00
2019-01-20T05:10:26.284Z,100654.00
2019-01-20T05:12:55.782Z,100652.00
2019-01-20T05:15:25.349Z,100655.00
2019-01-20T05:17:54.818Z,100655.00
2019-01-20T05:20:24.313Z,100649.00
2019-01-20T05:22:53.763Z,100653.00
2019-01-20T05:25:23.216Z,100651.00
2019-01-20T05:27:52.698Z,100643.00
2019-01-20T05:30:24.564Z,100651.00
2019-01-20T05:32:54.067Z,100645.00
2019-01-20T05:35:23.509Z,100645.00
2019-01-20T05:37:52.970Z,100642.00
2019-01-20T05:40:22.912Z,100653.00
2019-01-20T05:42:52.364Z,100648.00
2019-01-20T05:45:24.528Z,100651.00
2019-01-20T05:47:54.063Z,100653.00
2019-01-20T05:50:23.661Z,100650.00
2019-01-20T05:52:53.121Z,100645.00
2019-01-20T05:55:22.605Z,100641.00
2019-01-20T05:57:52.061Z,100642.00
2019-01-20T06:00:27.978Z,100648.00
2019-01-20T06:02:57.569Z,100649.00
2019-01-20T06:05:27.098Z,100645.00
2019-01-20T06:07:56.557Z,100648.00
2019-01-20T06:10:26.014Z,100645.00
2019-01-20T06:12:55.545Z,100653.00
2019-01-20T06:15:25.845Z,100662.00
2019-01-20T06:17:55.420Z,100655.00
2019-01-20T06:20:25.062Z,100654.00
2019-01-20T06:22:54.711Z,100652.00
2019-01-20T06:25:24.220Z,100663.00
2019-01-20T06:27:53.731Z,100658.00
2019-01-20T06:30:27.192Z,100665.00
2019-01-20T06:32:56.674Z,100669.00
2019-01-20T06:35:26.199Z,100682.00
2019-01-20T06:37:56.835Z,100690.00
2019-01-20T06:40:26.324Z,100689.00
2019-01-20T06:43:01.823Z,100679.00
2019-01-20T06:45:27.001Z,100695.00
2019-01-20T06:47:56.453Z,100710.00
2019-01-20T06:50:25.942Z,100687.00
2019-01-20T06:52:55.414Z,100701.00
2019-01-20T06:55:24.880Z,100708.00
2019-01-20T06:57:54.450Z,100688.00
2019-01-20T07:00:25.262Z,100690.00
2019-01-20T07:02:54.760Z,100689.00
2019-01-20T07:05:24.470Z,100706.00
2019-01-20T07:07:54.029Z,100709.00
2019-01-20T07:10:23.578Z,100697.00
2019-01-20T07:12:53.104Z,100700.00
2019-01-20T07:15:23.902Z,100691.00
2019-01-20T07:17:53.625Z,100683.00
2019-01-20T07:20:23.204Z,100685.00
2019-01-20T07:22:52.737Z,100694.00
2019-01-20T07:25:22.256Z,100692.00
2019-01-20T07:27:51.758Z,100692.00
2019-01-20T07:30:22.663Z,100700.00
2019-01-20T07:32:52.141Z,100701.00
2019-01-20T07:35:21.897Z,100698.00
2019-01-20T07:37:51.375Z,100711.00
2019-01-20T07:40:22.639Z,100705.00
2019-01-20T07:42:52.451Z,100708.00
2019-01-20T07:45:22.149Z,100708.00
2019-01-20T07:47:51.598Z,100703.00
2019-01-20T07:50:23.965Z,100713.00
2019-01-20T07:52:53.421Z,100710.00
2019-01-20T07:55:23.039Z,100720.00
2019-01-20T07:57:52.836Z,100705.00
2019-01-20T08:00:24.593Z,100712.00
2019-01-20T08:02:54.056Z,100714.00
2019-01-20T08:05:23.559Z,100718.00
2019-01-20T08:07:53.087Z,100726.00
2019-01-20T08:10:26.048Z,100727.00
2019-01-20T08:12:55.614Z,100731.00
2019-01-20T08:15:25.410Z,100731.00
2019-01-20T08:17:54.870Z,100728.00
2019-01-20T08:20:25.875Z,100740.00
2019-01-20T08:22:55.498Z,100740.00
2019-01-20T08:25:25.129Z,100758.00
2019-01-20T08:27:54.634Z,100743.00
2019-01-20T08:30:26.492Z,100746.00
2019-01-20T08:32:56.123Z,100743.00
2019-01-20T08:35:25.859Z,100734.00
2019-01-20T08:37:55.385Z,100738.00
2019-01-20T08:40:28.251Z,100737.00
2019-01-20T08:42:57.753Z,100743.00
2019-01-20T08:45:53.137Z,100743.00
2019-01-20T08:48:25.544Z,100747.00
2019-01-20T08:50:56.300Z,100753.00
2019-01-20T08:53:25.755Z,100744.00
2019-01-20T08:56:14.740Z,100752.00
2019-01-20T08:58:44.199Z,100759.00
2019-01-20T09:01:15.232Z,100765.00
2019-01-20T09:03:44.714Z,100760.00
2019-01-20T09:06:14.326Z,100772.00
2019-01-20T09:08:43.857Z,100763.00
2019-01-20T09:11:13.320Z,100763.00
2019-01-20T09:13:42.812Z,100761.00
2019-01-20T09:16:12.306Z,100750.00
2019-01-20T09:18:42.428Z,100756.00
2019-01-20T09:21:11.929Z,100755.00
2019-01-20T09:23:41.386Z,100755.00
2019-01-20T09:26:10.918Z,100750.00
2019-01-20T09:28:40.446Z,100759.00
2019-01-20T09:31:09.860Z,100758.00
2019-01-20T09:33:39.376Z,100756.00
2019-01-20T09:36:08.852Z,100745.00
2019-01-20T09:38:40.331Z,100760.00
2019-01-20T09:41:09.842Z,100768.00
2019-01-20T09:43:39.310Z,100773.00
2019-01-20T09:46:08.843Z,100773.00
2019-01-20T09:48:38.405Z,100779.00
2019-01-20T09:51:07.896Z,100773.00
2019-01-20T09:53:37.428Z,100776.00
2019-01-20T09:56:07.092Z,100760.00
2019-01-20T09:58:36.556Z,100773.00
2019-01-20T10:01:06.287Z,100760.00
2019-01-20T10:03:35.788Z,100762.00
2019-01-20T10:06:05.670Z,100766.00
2019-01-20T10:08:35.139Z,100754.00
2019-01-20T10:11:04.638Z,100767.00
2019-01-20T10:13:34.123Z,100775.00
2019-01-20T10:16:03.584Z,100775.00
2019-01-20T10:18:33.106Z,100775.00
2019-01-20T10:21:02.561Z,100762.00
2019-01-20T10:23:32.043Z,100765.00
2019-01-20T10:26:01.535Z,100748.00
2019-01-20T10:28:30.989Z,100758.00
2019-01-20T10:31:00.646Z,100759.00
2019-01-20T10:33:30.165Z,100763.00
2019-01-20T10:36:01.263Z,100750.00
2019-01-20T10:38:30.793Z,100747.00
2019-01-20T10:41:00.364Z,100741.00
2019-01-20T10:43:29.875Z,100741.00
2019-01-20T10:45:59.329Z,100742.00
2019-01-20T10:48:28.830Z,100743.00
2019-01-20T10:50:58.295Z,100742.00
2019-01-20T10:53:27.757Z,100742.00
2019-01-20T10:55:57.249Z,100753.00
2019-01-20T10:58:26.781Z,100741.00
2019-01-20T11:00:56.238Z,100733.00
2019-01-20T11:03:25.730Z,100732.00
2019-01-20T11:05:55.209Z,100741.00
2019-01-20T11:08:24.660Z,100736.00
2019-01-20T11:10:54.157Z,100739.00
2019-01-20T11:13:23.622Z,100744.00
2019-01-20T11:15:53.077Z,100752.00
2019-01-20T11:18:22.570Z,100744.00
2019-01-20T11:20:52.075Z,100753.00
2019-01-20T11:23:23.110Z,100744.00
2019-01-20T11:25:52.565Z,100747.00
2019-01-20T11:28:22.647Z,100758.00
2019-01-20T11:30:52.171Z,100751.00
2019-01-20T11:33:21.632Z,100750.00
2019-01-20T11:35:51.124Z,100746.00
2019-01-20T11:38:20.615Z,100735.00
2019-01-20T11:40:50.036Z,100738.00
2019-01-20T11:43:19.522Z,100745.00
2019-01-20T11:45:48.976Z,100728.00
2019-01-20T11:48:18.421Z,100730.00
2019-01-20T11:50:47.918Z,100720.00
2019-01-20T11:53:17.377Z,100721.00
2019-01-20T11:55:46.832Z,100725.00
2019-01-20T11:58:16.324Z,100735.00
2019-01-20T12:00:45.849Z,100727.00
2019-01-20T12:03:15.305Z,100721.00
2019-01-20T12:05:44.872Z,100719.00
2019-01-20T12:08:14.344Z,100726.00
2019-01-20T12:10:43.933Z,100724.00
2019-01-20T12:13:15.052Z,100726.00
2019-01-20T12:15:44.508Z,100719.00
2019-01-20T12:18:13.957Z,100724.00
2019-01-20T12:20:43.448Z,100712.00
2019-01-20T12:23:12.907Z,100728.00
2019-01-20T12:25:42.352Z,100713.00
2019-01-20T12:28:11.920Z,100725.00
2019-01-20T12:30:41.454Z,100716.00
2019-01-20T12:33:11.027Z,100714.00
2019-01-20T12:35:40.534Z,100716.00
2019-01-20T12:38:10.056Z,100708.00
2019-01-20T12:40:43.224Z,100701.00
2019-01-20T12:43:19.300Z,100712.00
2019-01-20T12:45:48.750Z,100711.00
2019-01-20T12:48:18.267Z,100706.00
2019-01-20T12:50:47.771Z,100702.00
2019-01-20T12:53:17.231Z,100702.00
2019-01-20T12:55:46.920Z,100697.00
2019-01-20T12:58:16.446Z,100699.00
2019-01-20T13:00:45.906Z,100693.00
2019-01-20T13:03:15.395Z,100687.00
2019-01-20T13:05:44.845Z,100695.00
2019-01-20T13:08:14.296Z,100692.00
2019-01-20T13:10:43.791Z,100704.00
2019-01-20T13:13:13.254Z,100703.00
2019-01-20T13:15:42.722Z,100702.00
2019-01-20T13:18:12.283Z,100709.00
2019-01-20T13:20:41.735Z,100701.00
2019-01-20T13:23:11.257Z,100707.00
2019-01-20T13:25:40.759Z,100710.00
2019-01-20T13:28:10.213Z,100710.00
2019-01-20T13:30:39.679Z,100725.00
2019-01-20T13:33:09.176Z,100713.00
2019-01-20T13:35:38.631Z,100705.00
2019-01-20T13:38:10.691Z,100714.00
2019-01-20T13:40:51.246Z,100709.00
2019-01-20T13:43:20.811Z,100711.00
2019-01-20T13:45:50.282Z,100717.00
2019-01-20T13:48:19.929Z,100720.00
2019-01-20T13:50:49.406Z,100719.00
2019-01-20T13:53:18.869Z,100716.00
2019-01-20T13:55:48.360Z,100718.00
2019-01-20T13:58:17.811Z,100713.00
2019-01-20T14:00:47.511Z,100715.00
2019-01-20T14:03:17.015Z,100712.00
2019-01-20T14:05:46.469Z,100716.00
2019-01-20T14:08:15.929Z,100718.00
2019-01-20T14:10:47.509Z,100717.00
2019-01-20T14:13:17.203Z,100721.00
2019-01-20T14:15:46.675Z,100724.00
2019-01-20T14:18:16.127Z,100726.00
2019-01-20T14:20:45.618Z,100720.00
2019-01-20T14:23:15.065Z,100731.00
2019-01-20T14:25:44.583Z,100733.00
2019-01-20T14:28:14.042Z,100733.00
2019-01-20T14:30:44.060Z,100737.00
2019-01-20T14:33:13.544Z,100733.00
2019-01-20T14:35:43.062Z,100743.00
2019-01-20T14:38:12.518Z,100744.00
2019-01-20T14:40:41.977Z,100738.00
2019-01-20T14:43:11.466Z,100742.00
2019-01-20T14:45:40.918Z,100738.00
2019-01-20T14:48:10.380Z,100738.00
2019-01-20T14:50:40.012Z,100748.00
2019-01-20T14:53:09.514Z,100747.00
2019-01-20T14:55:38.968Z,100753.00
2019-01-20T14:58:08.420Z,100764.00
2019-01-20T15:00:39.020Z,100752.00
2019-01-20T15:03:08.946Z,100755.00
2019-01-20T15:05:38.488Z,100749.00
2019-01-20T15:08:08.745Z,100745.00
2019-01-20T15:10:43.943Z,100751.00
2019-01-20T15:13:13.399Z,100753.00
2019-01-20T15:15:44.221Z,100750.00
2019-01-20T15:18:13.670Z,100755.00
2019-01-20T15:20:43.239Z,100752.00
2019-01-20T15:23:12.691Z,100755.00
2019-01-20T15:25:42.135Z,100745.00
2019-01-20T15:28:11.673Z,100755.00
2019-01-20T15:30:41.427Z,100765.00
2019-01-20T15:33:10.887Z,100774.00
2019-01-20T15:35:40.373Z,100783.00
2019-01-20T15:38:09.970Z,100784.00
2019-01-20T15:40:39.488Z,100785.00
2019-01-20T15:43:08.947Z,100792.00
2019-01-20T15:45:38.412Z,100790.00
2019-01-20T15:48:08.053Z,100789.00
2019-01-20T15:50:37.567Z,100781.00
2019-01-20T15:53:07.054Z,100797.00
2019-01-20T15:55:36.513Z,100792.00
2019-01-20T15:58:06.238Z,100800.00
2019-01-20T16:00:35.704Z,100801.00
2019-01-20T16:03:05.530Z,100809.00
2019-01-20T16:05:35.109Z,100811.00
2019-01-20T16:08:04.795Z,100802.00
2019-01-20T16:10:34.328Z,100809.00
2019-01-20T16:13:03.832Z,100811.00
2019-01-20T16:15:34.997Z,100818.00
2019-01-20T16:18:04.627Z,100816.00
2019-01-20T16:20:34.173Z,100817.00
2019-01-20T16:23:04.298Z,100818.00
2019-01-20T16:25:35.683Z,100818.00
2019-01-20T16:28:05.758Z,100827.00
2019-01-20T16:30:37.834Z,100823.00
2019-01-20T16:33:07.477Z,100826.00
2019-01-20T16:35:36.932Z,100839.00
2019-01-20T16:38:06.434Z,100844.00
2019-01-20T16:40:35.956Z,100844.00
2019-01-20T16:43:05.744Z,100837.00
2019-01-20T16:45:42.620Z,100839.00
2019-01-20T16:48:12.425Z,100852.00
2019-01-20T16:50:42.000Z,100839.00
2019-01-20T16:53:11.579Z,100847.00
2019-01-20T16:55:41.036Z,100851.00
2019-01-20T16:58:10.551Z,100862.00
2019-01-20T17:00:41.715Z,100858.00
2019-01-20T17:03:11.248Z,100865.00
2019-01-20T17:05:40.710Z,100860.00
2019-01-20T17:08:10.452Z,100869.00
2019-01-20T17:10:40.954Z,100868.00
2019-01-20T17:13:11.027Z,100873.00
2019-01-20T17:15:42.421Z,100872.00
2019-01-20T17:18:13.282Z,100878.00
2019-01-20T17:20:43.009Z,100873.00
2019-01-20T17:23:12.552Z,100870.00
2019-01-20T17:25:42.020Z,100866.00
2019-01-20T17:28:11.537Z,100879.00
2019-01-20T17:30:41.907Z,100882.00
2019-01-20T17:33:12.207Z,100887.00
2019-01-20T17:35:41.718Z,100896.00
2019-01-20T17:38:11.187Z,100885.00
2019-01-20T17:40:40.655Z,100889.00
2019-01-20T17:43:10.157Z,100888.00
2019-01-20T17:45:47.722Z,100893.00
2019-01-20T17:48:13.845Z,100898.00
2019-01-20T17:50:44.194Z,100894.00
2019-01-20T17:53:13.996Z,100896.00
2019-01-20T17:55:43.628Z,100898.00
2019-01-20T17:58:13.275Z,100905.00
2019-01-20T18:00:44.441Z,100903.00
2019-01-20T18:03:14.145Z,100905.00
2019-01-20T18:05:44.319Z,100913.00
2019-01-20T18:08:13.798Z,100919.00
2019-01-20T18:10:43.265Z,100914.00
2019-01-20T18:13:13.099Z,100927.00
2019-01-20T18:15:42.576Z,100930.00
2019-01-20T18:18:13.305Z,100928.00
2019-01-20T18:20:42.886Z,100936.00
2019-01-20T18:23:12.365Z,100940.00
2019-01-20T18:25:41.835Z,100925.00
2019-01-20T18:28:11.553Z,100937.00
2019-01-20T18:30:41.023Z,100928.00
2019-01-20T18:33:10.576Z,100938.00
2019-01-20T18:35:40.022Z,100931.00
2019-01-20T18:38:09.482Z,100930.00
2019-01-20T18:40:39.039Z,100930.00
2019-01-20T18:43:08.499Z,100936.00
2019-01-20T18:45:37.996Z,100934.00
2019-01-20T18:48:07.458Z,100948.00
2019-01-20T18:50:38.944Z,100940.00
2019-01-20T18:53:08.448Z,100945.00
2019-01-20T18:55:38.155Z,100955.00
2019-01-20T18:58:07.661Z,100957.00
2019-01-20T19:00:44.855Z,100964.00
2019-01-20T19:03:14.429Z,100956.00
2019-01-20T19:05:43.895Z,100969.00
2019-01-20T19:08:13.427Z,100964.00
2019-01-20T19:10:44.019Z,100971.00
2019-01-20T19:13:13.483Z,100985.00
2019-01-20T19:15:43.007Z,100973.00
2019-01-20T19:18:18.981Z,100976.00
2019-01-20T19:20:43.679Z,100983.00
2019-01-20T19:23:13.195Z,100981.00
2019-01-20T19:25:42.661Z,100980.00
2019-01-20T19:28:12.123Z,100983.00
2019-01-20T19:30:41.633Z,100983.00
2019-01-20T19:33:11.097Z,100991.00
2019-01-20T19:35:40.619Z,100989.00
2019-01-20T19:38:10.068Z,100996.00
2019-01-20T19:40:39.538Z,100982.00
2019-01-20T19:43:09.052Z,100973.00
2019-01-20T19:45:38.516Z,100993.00
2019-01-20T19:48:15.740Z,100980.00
2019-01-20T19:50:39.426Z,100985.00
2019-01-20T19:53:08.903Z,100976.00
2019-01-20T19:55:38.370Z,100980.00
2019-01-20T19:58:08.048Z,100974.00
2019-01-20T20:00:37.635Z,100987.00
2019-01-20T20:03:07.266Z,101000.00
2019-01-20T20:05:36.763Z,101006.00
2019-01-20T20:08:06.565Z,101006.00
2019-01-20T20:10:36.028Z,101004.00
2019-01-20T20:13:05.842Z,101013.00
2019-01-20T20:15:35.340Z,101024.00
2019-01-20T20:18:05.315Z,101030.00
2019-01-20T20:20:34.819Z,101035.00
2019-01-20T20:23:04.456Z,101032.00
2019-01-20T20:25:33.973Z,101037.00
2019-01-20T20:28:03.476Z,101037.00
2019-01-20T20:30:35.458Z,101039.00
2019-01-20T20:33:05.471Z,101045.00
2019-01-20T20:35:35.046Z,101046.00
2019-01-20T20:38:04.688Z,101048.00
2019-01-20T20:40:34.149Z,101058.00
2019-01-20T20:43:03.735Z,101055.00
2019-01-20T20:45:33.200Z,101061.00
2019-01-20T20:48:02.665Z,101064.00
2019-01-20T20:50:32.316Z,101064.00
2019-01-20T20:53:01.787Z,101062.00
2019-01-20T20:55:31.325Z,101078.00
2019-01-20T20:58:00.897Z,101076.00
2019-01-20T21:00:35.382Z,101082.00
2019-01-20T21:03:09.612Z,101087.00
2019-01-20T21:05:39.081Z,101091.00
2019-01-20T21:08:08.618Z,101086.00
2019-01-20T21:10:38.276Z,101090.00
2019-01-20T21:13:07.754Z,101093.00
2019-01-20T21:15:37.226Z,101089.00
2019-01-20T21:18:06.838Z,101092.00
2019-01-20T21:20:36.298Z,101094.00
2019-01-20T21:23:12.149Z,101096.00
2019-01-20T21:25:37.243Z,101104.00
2019-01-20T21:28:07.014Z,101107.00
2019-01-20T21:30:36.479Z,101114.00
2019-01-20T21:33:07.786Z,101116.00
2019-01-20T21:35:37.255Z,101117.00
2019-01-20T21:38:08.436Z,101110.00
2019-01-20T21:40:37.939Z,101120.00
2019-01-20T21:43:07.474Z,101121.00
2019-01-20T21:45:36.997Z,101121.00
2019-01-20T21:48:06.533Z,101117.00
2019-01-20T21:50:36.160Z,101123.00
2019-01-20T21:53:05.634Z,101116.00
2019-01-20T21:55:35.482Z,101120.00
2019-01-20T21:58:05.094Z,101123.00
2019-01-20T22:00:34.558Z,101121.00
2019-01-20T22:03:04.058Z,101134.00
2019-01-20T22:05:33.535Z,101130.00
2019-01-20T22:08:03.091Z,101129.00
2019-01-20T22:10:32.569Z,101131.00
2019-01-20T22:13:02.072Z,101131.00
2019-01-20T22:15:31.573Z,101137.00
2019-01-20T22:18:01.105Z,101138.00
2019-01-20T22:20:30.636Z,101140.00
2019-01-20T22:23:00.109Z,101122.00
2019-01-20T22:25:29.634Z,101130.00
2019-01-20T22:27:59.111Z,101131.00
2019-01-20T22:30:28.650Z,101143.00
2019-01-20T22:32:58.188Z,101142.00
2019-01-20T22:35:27.662Z,101151.00
2019-01-20T22:37:57.128Z,101150.00
2019-01-20T22:40:26.632Z,101146.00
2019-01-20T22:42:56.137Z,101146.00
2019-01-20T22:45:26.652Z,101148.00
2019-01-20T22:47:56.322Z,101158.00
2019-01-20T22:50:26.198Z,101161.00
2019-01-20T22:52:56.526Z,101145.00
2019-01-20T22:55:26.192Z,101155.00
2019-01-20T22:57:55.657Z,101158.00
2019-01-20T23:00:31.403Z,101156.00
2019-01-20T23:03:00.872Z,101155.00
2019-01-20T23:05:30.374Z,101159.00
2019-01-20T23:07:59.844Z,101164.00
2019-01-20T23:10:29.345Z,101169.00
2019-01-20T23:12:58.818Z,101168.00
2019-01-20T23:15:28.322Z,101170.00
2019-01-20T23:17:57.874Z,101164.00
2019-01-20T23:20:27.409Z,101166.00
2019-01-20T23:22:57.046Z,101172.00
2019-01-20T23:25:26.552Z,101168.00
2019-01-20T23:27:56.024Z,101173.00
2019-01-20T23:30:25.731Z,101177.00
2019-01-20T23:32:55.232Z,101181.00
2019-01-20T23:35:24.743Z,101175.00
2019-01-20T23:37:54.246Z,101181.00
2019-01-20T23:40:23.754Z,101177.00
2019-01-20T23:42:53.227Z,101181.00
2019-01-20T23:45:22.867Z,101183.00
2019-01-20T23:47:52.499Z,101181.00
2019-01-20T23:50:22.054Z,101191.00
2019-01-20T23:52:51.552Z,101170.00
2019-01-20T23:55:21.131Z,101183.00
2019-01-20T23:57:50.595Z,101186.00
